createdAt,value
2023-01-06T00:00:11.329Z,74.62
2023-01-06T00:02:39.594Z,74.37
2023-01-06T00:05:08.399Z,74.26
2023-01-06T00:07:38.121Z,74.38
2023-01-06T00:10:06.729Z,74.32
2023-01-06T00:12:35.031Z,74.22
2023-01-06T00:15:04.461Z,73.79
2023-01-06T00:17:32.855Z,73.51
2023-01-06T00:20:01.003Z,74.23
2023-01-06T00:22:28.834Z,74.01
2023-01-06T00:24:58.194Z,74.16
2023-01-06T00:27:26.271Z,73.77
2023-01-06T00:29:57.765Z,73.98
2023-01-06T00:32:26.262Z,73.86
2023-01-06T00:34:55.282Z,73.49
2023-01-06T00:37:23.948Z,73.44
2023-01-06T00:39:52.845Z,73.64
2023-01-06T00:42:22.940Z,73.37
2023-01-06T00:44:52.191Z,73.25
2023-01-06T00:47:21.190Z,74.39
2023-01-06T00:49:49.307Z,74.46
2023-01-06T00:52:17.541Z,74.86
2023-01-06T00:54:45.712Z,74.51
2023-01-06T00:57:15.039Z,74.91
2023-01-06T00:59:44.543Z,75.01
2023-01-06T01:02:13.651Z,75.76
2023-01-06T01:04:41.954Z,75.50
2023-01-06T01:07:11.409Z,75.74
2023-01-06T01:09:41.388Z,75.98
2023-01-06T01:12:14.175Z,76.02
2023-01-06T01:14:47.097Z,75.98
2023-01-06T01:17:17.132Z,75.98
2023-01-06T01:19:45.092Z,75.82
2023-01-06T01:22:13.513Z,75.81
2023-01-06T01:24:43.844Z,76.28
2023-01-06T01:27:14.131Z,76.59
2023-01-06T01:29:42.132Z,76.69
2023-01-06T01:32:11.700Z,76.74
2023-01-06T01:34:39.957Z,77.03
2023-01-06T01:37:08.023Z,76.66
2023-01-06T01:39:36.041Z,76.62
2023-01-06T01:42:05.677Z,77.01
2023-01-06T01:45:07.554Z,77.27
2023-01-06T01:47:44.562Z,77.54
2023-01-06T01:50:18.728Z,77.31
2023-01-06T01:52:48.843Z,77.47
2023-01-06T01:55:18.349Z,77.38
2023-01-06T01:57:50.233Z,77.33
2023-01-06T02:00:19.409Z,76.99
2023-01-06T02:02:48.920Z,76.83
2023-01-06T02:05:20.502Z,76.47
2023-01-06T02:07:49.598Z,76.17
2023-01-06T02:10:21.235Z,76.33
2023-01-06T02:12:53.752Z,75.79
2023-01-06T02:15:23.882Z,75.60
2023-01-06T02:18:27.989Z,75.84
2023-01-06T02:21:11.197Z,76.15
2023-01-06T02:24:45.459Z,75.30
2023-01-06T02:27:47.700Z,76.42
2023-01-06T02:30:46.995Z,76.69
2023-01-06T02:33:22.829Z,75.96
2023-01-06T02:36:01.489Z,76.44
2023-01-06T02:38:50.526Z,76.51
2023-01-06T02:41:29.155Z,76.73
2023-01-06T02:44:03.857Z,77.09
2023-01-06T02:46:58.465Z,77.63
2023-01-06T02:49:33.389Z,78.13
2023-01-06T02:52:05.844Z,77.54
2023-01-06T02:54:51.464Z,77.61
2023-01-06T02:57:27.083Z,77.99
2023-01-06T03:00:06.459Z,78.32
2023-01-06T03:02:35.409Z,77.95
2023-01-06T03:05:06.957Z,78.18
2023-01-06T03:07:36.000Z,77.91
2023-01-06T03:10:05.584Z,78.02
2023-01-06T03:12:41.236Z,78.49
2023-01-06T03:15:10.489Z,78.05
2023-01-06T03:17:38.828Z,77.63
2023-01-06T03:20:10.583Z,77.73
2023-01-06T03:22:40.147Z,77.97
2023-01-06T03:25:10.269Z,78.24
2023-01-06T03:27:39.894Z,77.73
2023-01-06T03:30:11.719Z,78.04
2023-01-06T03:32:48.023Z,77.88
2023-01-06T03:35:46.450Z,77.43
2023-01-06T03:38:23.808Z,77.61
2023-01-06T03:40:56.285Z,77.77
2023-01-06T03:43:27.840Z,77.23
2023-01-06T03:45:59.154Z,77.49
2023-01-06T03:48:38.898Z,78.81
2023-01-06T03:51:12.202Z,78.60
2023-01-06T03:53:47.907Z,78.81
2023-01-06T03:56:20.082Z,78.83
2023-01-06T03:58:51.913Z,79.02
2023-01-06T04:01:20.467Z,78.69
2023-01-06T04:03:49.424Z,78.28
2023-01-06T04:06:19.141Z,77.90
2023-01-06T04:08:49.476Z,78.51
2023-01-06T04:11:32.222Z,78.33
2023-01-06T04:14:01.081Z,78.83
2023-01-06T04:16:30.079Z,78.67
2023-01-06T04:18:59.124Z,78.61
2023-01-06T04:21:29.057Z,78.43
2023-01-06T04:23:59.241Z,78.78
2023-01-06T04:26:27.218Z,78.70
2023-01-06T04:28:55.653Z,78.67
2023-01-06T04:31:27.746Z,78.19
2023-01-06T04:33:56.946Z,78.69
2023-01-06T04:36:26.997Z,78.76
2023-01-06T04:38:58.377Z,78.19
2023-01-06T04:41:26.239Z,78.38
2023-01-06T04:43:55.978Z,78.08
2023-01-06T04:46:25.574Z,78.63
2023-01-06T04:48:53.819Z,78.32
2023-01-06T04:51:21.904Z,78.78
2023-01-06T04:53:50.840Z,78.94
2023-01-06T04:56:20.529Z,78.78
2023-01-06T04:58:48.741Z,78.61
2023-01-06T05:01:17.567Z,79.53
2023-01-06T05:03:45.982Z,79.50
2023-01-06T05:06:15.731Z,79.32
2023-01-06T05:08:44.801Z,79.58
2023-01-06T05:11:15.114Z,79.32
2023-01-06T05:13:44.570Z,79.32
2023-01-06T05:16:14.092Z,79.59
2023-01-06T05:18:42.144Z,79.57
2023-01-06T05:21:10.100Z,79.28
2023-01-06T05:23:38.681Z,79.90
2023-01-06T05:26:08.979Z,79.98
2023-01-06T05:28:37.202Z,80.28
2023-01-06T05:31:07.060Z,80.42
2023-01-06T05:33:36.312Z,80.51
2023-01-06T05:36:07.988Z,80.35
2023-01-06T05:38:35.973Z,81.16
2023-01-06T05:41:04.371Z,81.07
2023-01-06T05:43:34.873Z,81.05
2023-01-06T05:46:07.875Z,81.38
2023-01-06T05:48:36.111Z,81.84
2023-01-06T05:51:05.172Z,81.73
2023-01-06T05:53:33.764Z,81.44
2023-01-06T05:56:03.279Z,81.62
2023-01-06T05:58:33.408Z,82.05
2023-01-06T06:01:01.776Z,82.19
2023-01-06T06:03:31.413Z,82.05
2023-01-06T06:06:07.701Z,82.92
2023-01-06T06:08:35.744Z,83.12
2023-01-06T06:11:05.243Z,83.55
2023-01-06T06:13:34.143Z,83.75
2023-01-06T06:16:08.454Z,83.77
2023-01-06T06:18:43.659Z,84.12
2023-01-06T06:21:12.893Z,83.71
2023-01-06T06:23:41.288Z,84.00
2023-01-06T06:26:10.719Z,83.88
2023-01-06T06:28:39.503Z,84.19
2023-01-06T06:31:08.565Z,84.74
2023-01-06T06:33:38.064Z,85.23
2023-01-06T06:36:11.740Z,85.51
2023-01-06T06:38:42.284Z,86.18
2023-01-06T06:41:11.316Z,86.69
2023-01-06T06:43:40.084Z,87.07
2023-01-06T06:46:09.416Z,87.65
2023-01-06T06:48:38.903Z,88.23
2023-01-06T06:51:10.926Z,88.72
2023-01-06T06:53:40.900Z,89.19
2023-01-06T06:56:10.818Z,89.41
2023-01-06T06:58:40.120Z,90.16
2023-01-06T07:01:13.340Z,90.34
2023-01-06T07:03:43.093Z,90.66
2023-01-06T07:06:12.940Z,90.76
2023-01-06T07:08:44.252Z,90.77
2023-01-06T07:11:12.686Z,91.10
2023-01-06T07:13:40.680Z,91.21
2023-01-06T07:16:09.526Z,91.63
2023-01-06T07:18:37.812Z,91.93
2023-01-06T07:21:08.095Z,91.99
2023-01-06T07:23:36.748Z,92.13
2023-01-06T07:26:05.493Z,91.76
2023-01-06T07:28:34.217Z,91.62
2023-01-06T07:31:03.925Z,92.17
2023-01-06T07:33:31.961Z,92.28
2023-01-06T07:36:02.025Z,92.58
2023-01-06T07:38:32.198Z,92.37
2023-01-06T07:41:02.070Z,92.61
2023-01-06T07:43:30.774Z,92.16
2023-01-06T07:45:58.993Z,92.66
2023-01-06T07:48:27.365Z,92.43
2023-01-06T07:50:56.566Z,91.90
2023-01-06T07:53:25.392Z,92.43
2023-01-06T07:55:56.211Z,92.25
2023-01-06T07:58:24.939Z,92.14
2023-01-06T08:00:53.016Z,92.66
2023-01-06T08:03:21.900Z,92.46
2023-01-06T08:05:50.985Z,92.51
2023-01-06T08:08:19.243Z,92.69
2023-01-06T08:10:47.447Z,92.68
2023-01-06T08:13:21.061Z,92.74
2023-01-06T08:15:52.164Z,92.94
2023-01-06T08:18:20.714Z,93.08
2023-01-06T08:20:48.906Z,93.31
2023-01-06T08:23:16.994Z,92.82
2023-01-06T08:25:45.193Z,93.03
2023-01-06T08:28:13.568Z,92.89
2023-01-06T08:30:43.983Z,92.99
2023-01-06T08:33:12.087Z,93.17
2023-01-06T08:35:40.522Z,93.46
2023-01-06T08:38:10.041Z,93.79
2023-01-06T08:40:38.285Z,93.52
2023-01-06T08:43:09.647Z,93.76
2023-01-06T08:45:39.623Z,93.75
2023-01-06T08:48:09.441Z,93.67
2023-01-06T08:50:40.597Z,93.56
2023-01-06T08:53:08.917Z,93.92
2023-01-06T08:55:40.451Z,93.69
2023-01-06T08:58:11.920Z,93.58
2023-01-06T09:00:42.873Z,93.68
2023-01-06T09:03:14.143Z,93.87
2023-01-06T09:05:42.300Z,93.49
2023-01-06T09:08:10.674Z,93.75
2023-01-06T09:10:39.198Z,93.57
2023-01-06T09:13:07.206Z,93.41
2023-01-06T09:15:35.635Z,93.66
2023-01-06T09:18:03.662Z,93.58
2023-01-06T09:20:34.571Z,93.93
2023-01-06T09:23:02.767Z,94.01
2023-01-06T09:25:30.973Z,93.81
2023-01-06T09:27:59.900Z,93.70
2023-01-06T09:30:28.200Z,93.88
2023-01-06T09:32:56.474Z,93.46
2023-01-06T09:35:25.423Z,93.54
2023-01-06T09:37:55.102Z,93.63
2023-01-06T09:40:27.495Z,93.77
2023-01-06T09:43:05.567Z,93.74
2023-01-06T09:45:39.770Z,93.64
2023-01-06T09:48:11.967Z,93.89
2023-01-06T09:50:42.943Z,93.61
2023-01-06T09:53:17.087Z,93.58
2023-01-06T09:55:48.556Z,93.60
2023-01-06T09:58:18.531Z,93.14
2023-01-06T10:00:48.590Z,93.40
2023-01-06T10:03:18.598Z,93.71
2023-01-06T10:06:04.043Z,93.71
2023-01-06T10:08:39.625Z,93.27
2023-01-06T10:11:13.123Z,92.67
2023-01-06T10:13:51.318Z,92.94
2023-01-06T10:16:28.515Z,92.94
2023-01-06T10:19:00.508Z,93.00
2023-01-06T10:21:32.599Z,92.90
2023-01-06T10:24:16.888Z,93.02
2023-01-06T10:26:46.806Z,92.75
2023-01-06T10:29:18.545Z,93.21
2023-01-06T10:31:49.424Z,93.08
2023-01-06T10:34:23.820Z,92.98
2023-01-06T10:36:57.261Z,93.46
2023-01-06T10:39:27.879Z,93.43
2023-01-06T10:42:16.668Z,93.30
2023-01-06T10:44:44.658Z,93.05
2023-01-06T10:47:16.367Z,93.21
2023-01-06T10:49:44.417Z,92.58
2023-01-06T10:52:13.875Z,92.44
2023-01-06T10:54:43.797Z,92.61
2023-01-06T10:57:18.862Z,92.65
2023-01-06T11:00:10.300Z,92.47
2023-01-06T11:02:43.470Z,92.47
2023-01-06T11:05:15.034Z,92.29
2023-01-06T11:07:51.898Z,92.40
2023-01-06T11:10:33.250Z,91.08
2023-01-06T11:13:02.362Z,91.96
2023-01-06T11:15:37.046Z,92.11
2023-01-06T11:18:05.942Z,92.26
2023-01-06T11:20:36.311Z,92.35
2023-01-06T11:23:15.960Z,92.73
2023-01-06T11:25:46.100Z,92.22
2023-01-06T11:28:19.690Z,92.20
2023-01-06T11:30:52.846Z,92.37
2023-01-06T11:33:23.027Z,92.50
2023-01-06T11:35:51.740Z,92.85
2023-01-06T11:38:21.544Z,92.28
2023-01-06T11:40:52.563Z,92.75
2023-01-06T11:43:25.825Z,92.53
2023-01-06T11:45:57.271Z,92.59
2023-01-06T11:48:30.540Z,92.91
2023-01-06T11:51:00.323Z,92.79
2023-01-06T11:53:29.524Z,92.58
2023-01-06T11:56:02.247Z,92.87
2023-01-06T11:58:43.267Z,92.36
2023-01-06T12:01:17.671Z,91.79
2023-01-06T12:03:48.826Z,91.14
2023-01-06T12:06:25.470Z,92.22
2023-01-06T12:08:59.617Z,91.67
2023-01-06T12:11:37.205Z,92.50
2023-01-06T12:14:19.654Z,91.99
2023-01-06T12:17:00.250Z,91.81
2023-01-06T12:19:34.639Z,91.46
2023-01-06T12:22:03.190Z,91.46
2023-01-06T12:24:33.513Z,91.58
2023-01-06T12:27:04.905Z,91.14
2023-01-06T12:29:34.440Z,91.63
2023-01-06T12:32:09.948Z,91.32
2023-01-06T12:34:40.670Z,90.85
2023-01-06T12:37:18.047Z,90.14
2023-01-06T12:39:54.524Z,90.79
2023-01-06T12:42:29.724Z,90.17
2023-01-06T12:45:02.439Z,90.31
2023-01-06T12:47:36.294Z,90.51
2023-01-06T12:50:08.370Z,90.39
2023-01-06T12:52:40.657Z,90.74
2023-01-06T12:55:14.215Z,90.27
2023-01-06T12:57:52.815Z,90.12
2023-01-06T13:00:36.245Z,90.54
2023-01-06T13:03:25.281Z,90.06
2023-01-06T13:06:04.133Z,89.65
2023-01-06T13:08:47.683Z,89.44
2023-01-06T13:11:22.258Z,88.98
2023-01-06T13:13:59.157Z,88.45
2023-01-06T13:16:31.644Z,87.96
2023-01-06T13:19:08.740Z,87.97
2023-01-06T13:21:40.527Z,87.76
2023-01-06T13:24:22.721Z,87.30
2023-01-06T13:27:05.644Z,87.28
2023-01-06T13:29:50.032Z,86.35
2023-01-06T13:32:40.340Z,86.54
2023-01-06T13:35:30.692Z,85.99
2023-01-06T13:38:13.003Z,86.26
2023-01-06T13:40:41.376Z,86.11
2023-01-06T13:43:16.584Z,85.50
2023-01-06T13:45:48.021Z,85.48
2023-01-06T13:48:18.501Z,84.99
2023-01-06T13:50:47.205Z,85.06
2023-01-06T13:53:19.289Z,84.66
2023-01-06T13:55:48.265Z,84.28
2023-01-06T13:58:35.852Z,84.13
2023-01-06T14:01:10.941Z,83.77
2023-01-06T14:03:40.254Z,84.10
2023-01-06T14:06:12.683Z,83.95
2023-01-06T14:08:48.187Z,83.76
2023-01-06T14:11:30.769Z,83.28
2023-01-06T14:14:01.565Z,83.33
2023-01-06T14:16:49.904Z,83.34
2023-01-06T14:19:20.064Z,83.19
2023-01-06T14:21:49.385Z,83.47
2023-01-06T14:24:24.570Z,82.84
2023-01-06T14:26:55.737Z,82.49
2023-01-06T14:29:47.307Z,82.21
2023-01-06T14:32:48.579Z,81.87
2023-01-06T14:35:19.912Z,82.04
2023-01-06T14:37:53.051Z,82.09
2023-01-06T14:40:24.434Z,82.14
2023-01-06T14:42:53.964Z,82.30
2023-01-06T14:45:27.064Z,82.79
2023-01-06T14:47:57.630Z,84.47
2023-01-06T14:50:41.883Z,84.95
2023-01-06T14:53:20.422Z,84.93
2023-01-06T14:55:53.852Z,84.77
2023-01-06T14:58:30.410Z,85.02
2023-01-06T15:01:03.028Z,84.96
2023-01-06T15:03:32.596Z,84.55
2023-01-06T15:06:18.359Z,84.69
2023-01-06T15:08:46.800Z,84.85
2023-01-06T15:11:22.851Z,84.52
2023-01-06T15:13:51.613Z,84.60
2023-01-06T15:16:24.649Z,85.06
2023-01-06T15:18:54.950Z,85.04
2023-01-06T15:21:25.768Z,85.63
2023-01-06T15:23:55.444Z,85.46
2023-01-06T15:26:27.554Z,84.92
2023-01-06T15:29:06.791Z,84.98
2023-01-06T15:31:36.187Z,85.25
2023-01-06T15:34:08.452Z,84.84
2023-01-06T15:36:39.006Z,85.01
2023-01-06T15:39:07.219Z,84.98
2023-01-06T15:41:36.964Z,85.33
2023-01-06T15:44:23.097Z,84.76
2023-01-06T15:46:54.319Z,84.87
2023-01-06T15:49:29.144Z,84.48
2023-01-06T15:52:05.794Z,84.68
2023-01-06T15:54:38.952Z,84.83
2023-01-06T15:57:17.222Z,84.40
2023-01-06T15:59:54.658Z,84.67
2023-01-06T16:02:26.332Z,84.70
2023-01-06T16:04:54.414Z,84.72
2023-01-06T16:07:35.775Z,84.52
2023-01-06T16:10:04.044Z,84.09
2023-01-06T16:12:32.294Z,84.46
2023-01-06T16:15:36.496Z,84.49
2023-01-06T16:18:04.797Z,84.14
2023-01-06T16:20:33.024Z,84.45
2023-01-06T16:23:03.699Z,84.70
2023-01-06T16:25:33.484Z,84.46
2023-01-06T16:28:03.309Z,83.91
2023-01-06T16:30:35.839Z,84.00
2023-01-06T16:33:05.017Z,83.22
2023-01-06T16:35:34.349Z,83.43
2023-01-06T16:38:06.678Z,83.51
2023-01-06T16:40:34.777Z,83.12
2023-01-06T16:43:03.797Z,82.66
2023-01-06T16:45:36.767Z,82.84
2023-01-06T16:48:06.282Z,82.67
2023-01-06T16:50:40.607Z,83.02
2023-01-06T16:53:16.320Z,83.06
2023-01-06T16:55:44.654Z,82.76
2023-01-06T16:58:18.527Z,83.13
2023-01-06T17:00:56.754Z,82.96
2023-01-06T17:03:26.271Z,83.38
2023-01-06T17:05:55.093Z,83.24
2023-01-06T17:08:30.657Z,82.94
2023-01-06T17:11:01.905Z,82.85
2023-01-06T17:13:36.442Z,83.39
2023-01-06T17:16:15.054Z,83.69
2023-01-06T17:18:50.030Z,83.60
2023-01-06T17:21:19.706Z,83.83
2023-01-06T17:23:51.327Z,83.26
2023-01-06T17:26:22.228Z,83.53
2023-01-06T17:28:50.934Z,83.12
2023-01-06T17:31:32.693Z,83.11
2023-01-06T17:34:10.548Z,82.82
2023-01-06T17:36:42.883Z,83.22
2023-01-06T17:39:17.144Z,83.61
2023-01-06T17:41:45.340Z,83.67
2023-01-06T17:44:21.249Z,84.28
2023-01-06T17:46:49.593Z,84.02
2023-01-06T17:49:48.096Z,83.91
2023-01-06T17:52:18.231Z,83.90
2023-01-06T17:55:13.449Z,83.74
2023-01-06T17:57:47.000Z,83.68
2023-01-06T18:00:25.289Z,83.81
2023-01-06T18:03:00.922Z,83.59
2023-01-06T18:06:22.149Z,84.02
2023-01-06T18:08:55.472Z,83.70
2023-01-06T18:11:29.284Z,83.33
2023-01-06T18:14:01.586Z,83.27
2023-01-06T18:16:32.849Z,83.55
2023-01-06T18:19:18.199Z,83.24
2023-01-06T18:21:46.461Z,82.83
2023-01-06T18:24:17.955Z,82.72
2023-01-06T18:26:51.708Z,83.18
2023-01-06T18:29:21.108Z,83.31
2023-01-06T18:31:51.605Z,83.59
2023-01-06T18:34:27.975Z,83.22
2023-01-06T18:36:57.901Z,83.53
2023-01-06T18:39:29.131Z,83.59
2023-01-06T18:42:29.031Z,83.59
2023-01-06T18:45:19.470Z,83.80
2023-01-06T18:47:51.656Z,84.12
2023-01-06T18:50:33.092Z,84.03
2023-01-06T18:53:05.428Z,84.40
2023-01-06T18:55:38.150Z,84.47
2023-01-06T18:58:23.002Z,84.23
2023-01-06T19:00:54.902Z,83.97
2023-01-06T19:03:33.626Z,84.14
2023-01-06T19:06:37.827Z,84.54
2023-01-06T19:09:17.864Z,84.18
2023-01-06T19:11:47.459Z,84.59
2023-01-06T19:14:19.790Z,84.52
2023-01-06T19:16:52.719Z,84.13
2023-01-06T19:19:25.586Z,84.33
2023-01-06T19:21:57.729Z,84.08
2023-01-06T19:24:52.266Z,84.52
2023-01-06T19:27:39.578Z,84.46
2023-01-06T19:30:39.185Z,84.63
2023-01-06T19:33:36.721Z,84.36
2023-01-06T19:36:30.076Z,84.67
2023-01-06T19:38:59.428Z,84.69
2023-01-06T19:41:28.998Z,84.35
2023-01-06T19:44:04.729Z,84.58
2023-01-06T19:46:38.616Z,84.74
2023-01-06T19:49:16.325Z,84.59
2023-01-06T19:51:45.273Z,84.41
2023-01-06T19:54:26.083Z,84.55
2023-01-06T19:56:57.568Z,84.67
2023-01-06T19:59:29.425Z,84.70
2023-01-06T20:02:04.182Z,84.88
2023-01-06T20:04:34.758Z,84.81
2023-01-06T20:07:04.802Z,85.14
2023-01-06T20:09:35.990Z,84.85
2023-01-06T20:12:04.329Z,85.06
2023-01-06T20:14:32.755Z,84.98
2023-01-06T20:17:02.370Z,85.09
2023-01-06T20:19:30.798Z,85.03
2023-01-06T20:22:01.629Z,84.94
2023-01-06T20:24:30.748Z,84.87
2023-01-06T20:26:58.923Z,84.94
2023-01-06T20:29:27.184Z,84.88
2023-01-06T20:31:55.511Z,84.81
2023-01-06T20:34:27.541Z,85.00
2023-01-06T20:36:55.968Z,84.39
2023-01-06T20:39:24.115Z,84.59
2023-01-06T20:41:52.501Z,84.78
2023-01-06T20:44:21.018Z,84.48
2023-01-06T20:46:49.152Z,84.68
2023-01-06T20:49:21.362Z,84.45
2023-01-06T20:51:51.168Z,84.62
2023-01-06T20:54:20.870Z,84.98
2023-01-06T20:56:49.320Z,84.75
2023-01-06T20:59:17.428Z,85.16
2023-01-06T21:01:46.295Z,85.55
2023-01-06T21:04:14.972Z,85.19
2023-01-06T21:06:43.299Z,85.10
2023-01-06T21:09:18.453Z,85.50
2023-01-06T21:11:46.553Z,85.10
2023-01-06T21:14:16.918Z,85.31
2023-01-06T21:16:46.255Z,85.39
2023-01-06T21:19:15.101Z,85.08
2023-01-06T21:21:43.415Z,85.13
2023-01-06T21:24:13.184Z,85.03
2023-01-06T21:26:42.516Z,85.39
2023-01-06T21:29:10.613Z,85.60
2023-01-06T21:31:40.427Z,85.93
2023-01-06T21:34:08.871Z,85.94
2023-01-06T21:36:37.872Z,85.40
2023-01-06T21:39:07.139Z,85.51
2023-01-06T21:41:54.625Z,85.35
2023-01-06T21:44:22.838Z,86.13
2023-01-06T21:46:52.112Z,85.66
2023-01-06T21:49:20.596Z,85.96
2023-01-06T21:51:49.187Z,86.47
2023-01-06T21:54:17.324Z,86.30
2023-01-06T21:56:47.924Z,86.76
2023-01-06T21:59:16.133Z,86.59
2023-01-06T22:01:44.569Z,87.09
2023-01-06T22:04:12.661Z,87.02
2023-01-06T22:06:42.505Z,86.84
2023-01-06T22:09:12.963Z,86.90
2023-01-06T22:11:43.683Z,86.99
2023-01-06T22:14:14.798Z,87.19
2023-01-06T22:16:44.809Z,87.56
2023-01-06T22:19:13.671Z,86.88
2023-01-06T22:21:43.257Z,87.51
2023-01-06T22:24:12.541Z,87.53
2023-01-06T22:26:40.995Z,87.63
2023-01-06T22:29:09.021Z,87.43
2023-01-06T22:31:38.833Z,87.49
2023-01-06T22:34:08.206Z,87.35
2023-01-06T22:36:38.082Z,87.10
2023-01-06T22:39:07.045Z,86.31
2023-01-06T22:41:35.546Z,86.97
2023-01-06T22:44:03.601Z,86.86
2023-01-06T22:46:31.994Z,86.74
2023-01-06T22:49:01.990Z,86.30
2023-01-06T22:51:30.264Z,86.63
2023-01-06T22:53:58.971Z,86.77
2023-01-06T22:56:28.206Z,86.46
2023-01-06T22:58:56.693Z,86.66
2023-01-06T23:01:25.272Z,86.08
2023-01-06T23:03:53.620Z,85.98
2023-01-06T23:06:25.127Z,85.84
2023-01-06T23:09:00.124Z,86.30
2023-01-06T23:11:31.310Z,85.97
2023-01-06T23:14:00.407Z,85.89
2023-01-06T23:16:30.097Z,85.27
2023-01-06T23:18:58.704Z,85.21
2023-01-06T23:21:35.556Z,85.41
2023-01-06T23:24:04.081Z,85.35
2023-01-06T23:26:34.933Z,85.39
2023-01-06T23:29:03.752Z,85.54
2023-01-06T23:31:36.583Z,85.37
2023-01-06T23:34:07.204Z,85.67
2023-01-06T23:36:38.474Z,85.50
2023-01-06T23:39:08.747Z,85.75
2023-01-06T23:41:38.078Z,85.92
2023-01-06T23:44:06.899Z,86.43
2023-01-06T23:46:36.980Z,86.16
2023-01-06T23:49:07.577Z,86.50
2023-01-06T23:51:37.145Z,86.39
2023-01-06T23:54:06.226Z,86.59
2023-01-06T23:56:36.451Z,86.39
2023-01-06T23:59:05.741Z,86.46
